Time;durP1;ratioP1;P1;durP2;ratioP2;P2;SDS_P1;SDS_P2;PMS_P1;PMS_P2;Temp;Humidity;BMP_temperature;BMP_pressure;BME280_temperature;BME280_humidity;BME280_pressure;Samples;Min_cycle;Max_cycle;Signal;HPM_P1;HPM_P2
2022/11/02 00:00:48;;;;;;;9.88;1.90;;;;;;;;;;4989809;28;20209;-63
2022/11/02 00:03:14;;;;;;;15.05;2.33;;;;;;;;;;4988753;28;20233;-63
2022/11/02 00:05:39;;;;;;;10.18;2.08;;;;;;;;;;4990980;28;20373;-63
2022/11/02 00:08:04;;;;;;;10.70;1.83;;;;;;;;;;4990626;28;20205;-64
2022/11/02 00:10:30;;;;;;;12.45;1.80;;;;;;;;;;4990058;28;20734;-64
2022/11/02 00:12:55;;;;;;;12.18;2.08;;;;;;;;;;4991161;28;20209;-64
2022/11/02 00:15:20;;;;;;;13.23;2.53;;;;;;;;;;4990359;28;20304;-64
2022/11/02 00:17:46;;;;;;;11.68;1.67;;;;;;;;;;5005545;28;20674;-63
2022/11/02 00:20:12;;;;;;;11.05;2.10;;;;;;;;;;4990591;28;20240;-64
2022/11/02 00:22:38;;;;;;;11.68;1.90;;;;;;;;;;4990963;28;20252;-64
2022/11/02 00:25:03;;;;;;;13.02;1.60;;;;;;;;;;5004829;28;20205;-64
2022/11/02 00:27:29;;;;;;;13.02;1.85;;;;;;;;;;5005994;28;20209;-64
2022/11/02 00:29:54;;;;;;;11.35;1.75;;;;;;;;;;4990892;28;20580;-64
2022/11/02 00:32:19;;;;;;;8.60;1.80;;;;;;;;;;4989657;28;20302;-63
2022/11/02 00:34:45;;;;;;;11.23;1.92;;;;;;;;;;4990815;28;20213;-63
2022/11/02 00:37:10;;;;;;;14.55;1.85;;;;;;;;;;4990235;28;20213;-64
2022/11/02 00:39:35;;;;;;;10.05;2.13;;;;;;;;;;5004944;28;20284;-64
2022/11/02 00:42:01;;;;;;;10.55;1.67;;;;;;;;;;4991862;28;20220;-65
2022/11/02 00:44:26;;;;;;;11.18;1.80;;;;;;;;;;4995006;28;20282;-64
2022/11/02 00:46:51;;;;;;;13.50;2.13;;;;;;;;;;5004444;28;20924;-63
2022/11/02 00:49:16;;;;;;;11.88;1.60;;;;;;;;;;4989647;28;20217;-64
2022/11/02 00:51:43;;;;;;;10.57;2.28;;;;;;;;;;4990156;28;20599;-64
2022/11/02 00:54:08;;;;;;;10.90;1.90;;;;;;;;;;4988105;28;20227;-64
2022/11/02 00:56:33;;;;;;;12.52;1.92;;;;;;;;;;4988323;28;20332;-64
2022/11/02 00:58:58;;;;;;;7.32;1.77;;;;;;;;;;4989011;28;20259;-64
2022/11/02 01:01:24;;;;;;;8.50;1.77;;;;;;;;;;4989170;28;20308;-64
2022/11/02 01:03:49;;;;;;;12.07;2.08;;;;;;;;;;4989306;28;20767;-63
2022/11/02 01:06:14;;;;;;;12.27;2.25;;;;;;;;;;4988135;28;20220;-64
2022/11/02 01:08:40;;;;;;;12.77;1.92;;;;;;;;;;4988632;28;20810;-63
2022/11/02 01:11:12;;;;;;;9.77;1.90;;;;;;;;;;4987730;28;20220;-64
2022/11/02 01:13:37;;;;;;;8.77;1.88;;;;;;;;;;4988663;28;20209;-64
2022/11/02 01:16:03;;;;;;;8.18;1.65;;;;;;;;;;4989088;28;20212;-64
2022/11/02 01:18:28;;;;;;;9.20;1.80;;;;;;;;;;5004324;28;20687;-64
2022/11/02 01:20:55;;;;;;;6.85;1.48;;;;;;;;;;4988704;28;20360;-64
2022/11/02 01:23:20;;;;;;;8.65;1.55;;;;;;;;;;4988796;28;20228;-64
2022/11/02 01:25:45;;;;;;;9.02;1.40;;;;;;;;;;5004149;28;20294;-64
2022/11/02 01:28:11;;;;;;;9.75;2.25;;;;;;;;;;4987635;28;20220;-64
2022/11/02 01:30:37;;;;;;;8.00;1.33;;;;;;;;;;4989660;28;20212;-64
2022/11/02 01:33:04;;;;;;;9.60;1.92;;;;;;;;;;4988607;28;20216;-64
2022/11/02 01:35:29;;;;;;;9.65;2.10;;;;;;;;;;5003682;28;20213;-64
2022/11/02 01:37:54;;;;;;;9.65;2.08;;;;;;;;;;4989081;28;20212;-64
2022/11/02 01:40:19;;;;;;;10.77;2.28;;;;;;;;;;4988109;28;20223;-64
2022/11/02 01:42:45;;;;;;;9.98;1.98;;;;;;;;;;4987738;28;20212;-64
2022/11/02 01:45:10;;;;;;;11.10;2.05;;;;;;;;;;5002766;28;20618;-64
2022/11/02 01:47:36;;;;;;;10.20;2.00;;;;;;;;;;4984612;28;20217;-64
2022/11/02 01:50:07;;;;;;;10.35;2.10;;;;;;;;;;4985369;28;20725;-64
2022/11/02 01:52:34;;;;;;;11.13;2.42;;;;;;;;;;4972260;28;20295;-64
2022/11/02 01:55:02;;;;;;;12.05;2.35;;;;;;;;;;4976113;28;20238;-64
2022/11/02 01:57:27;;;;;;;13.50;2.08;;;;;;;;;;4975440;28;20225;-64
2022/11/02 01:59:56;;;;;;;7.75;1.50;;;;;;;;;;4977723;28;20988;-64
2022/11/02 02:02:22;;;;;;;5.95;1.00;;;;;;;;;;4976951;28;20217;-64
2022/11/02 02:04:48;;;;;;;5.68;0.90;;;;;;;;;;4976471;28;20227;-64
2022/11/02 02:07:14;;;;;;;3.78;0.70;;;;;;;;;;4977130;28;20212;-64
2022/11/02 02:09:39;;;;;;;2.67;0.50;;;;;;;;;;4971143;28;20213;-64
2022/11/02 02:12:05;;;;;;;5.00;1.13;;;;;;;;;;4970816;28;20209;-64
2022/11/02 02:14:30;;;;;;;4.47;0.80;;;;;;;;;;4971298;28;20209;-64
2022/11/02 02:17:04;;;;;;;1.77;0.43;;;;;;;;;;4991424;28;20770;-64
2022/11/02 02:19:31;;;;;;;5.07;0.73;;;;;;;;;;4977864;28;20243;-64
2022/11/02 02:21:56;;;;;;;2.63;0.60;;;;;;;;;;4977781;28;20573;-64
2022/11/02 02:24:28;;;;;;;2.63;0.82;;;;;;;;;;4976921;28;20824;-64
2022/11/02 02:26:58;;;;;;;4.05;0.70;;;;;;;;;;4977249;28;20248;-64
2022/11/02 02:29:25;;;;;;;5.10;0.90;;;;;;;;;;4974710;28;20240;-64
2022/11/02 02:31:56;;;;;;;4.35;0.85;;;;;;;;;;4970453;28;20213;-64
2022/11/02 02:34:23;;;;;;;4.53;0.68;;;;;;;;;;4970399;28;20719;-64
2022/11/02 02:36:50;;;;;;;3.00;0.70;;;;;;;;;;4970042;28;20287;-64
2022/11/02 02:39:19;;;;;;;4.28;0.80;;;;;;;;;;4975233;28;20298;-64
2022/11/02 02:41:46;;;;;;;4.60;0.98;;;;;;;;;;4992102;28;21079;-64
2022/11/02 02:44:14;;;;;;;3.88;1.10;;;;;;;;;;4991205;28;20728;-64
2022/11/02 02:46:39;;;;;;;2.85;0.90;;;;;;;;;;4982294;28;20241;-64
2022/11/02 02:49:04;;;;;;;5.60;1.10;;;;;;;;;;4983723;28;20263;-64
2022/11/02 02:51:30;;;;;;;5.38;0.93;;;;;;;;;;5005104;28;20220;-64
2022/11/02 02:53:57;;;;;;;4.35;0.90;;;;;;;;;;5006491;28;20213;-64
2022/11/02 02:56:23;;;;;;;5.50;1.05;;;;;;;;;;4972265;28;20229;-64
2022/11/02 02:58:56;;;;;;;3.97;1.10;;;;;;;;;;4971651;28;20559;-64
2022/11/02 03:01:21;;;;;;;6.53;0.90;;;;;;;;;;4972256;28;20216;-64
2022/11/02 03:03:47;;;;;;;4.97;0.90;;;;;;;;;;4972524;28;20316;-64
2022/11/02 03:06:19;;;;;;;5.18;0.90;;;;;;;;;;4970588;28;20544;-64
2022/11/02 03:08:47;;;;;;;7.47;0.85;;;;;;;;;;4972444;28;20596;-64
2022/11/02 03:11:14;;;;;;;5.90;0.98;;;;;;;;;;4988127;28;20292;-64
2022/11/02 03:13:41;;;;;;;6.43;1.38;;;;;;;;;;5006107;28;20209;-64
2022/11/02 03:16:13;;;;;;;6.78;1.20;;;;;;;;;;5006362;28;20240;-64
2022/11/02 03:18:47;;;;;;;5.20;1.00;;;;;;;;;;4991874;28;20220;-64
2022/11/02 03:21:19;;;;;;;5.65;1.00;;;;;;;;;;4990660;28;20202;-64
2022/11/02 03:23:50;;;;;;;9.18;1.10;;;;;;;;;;5006746;28;20232;-64
2022/11/02 03:26:18;;;;;;;6.53;1.30;;;;;;;;;;4991759;28;20221;-64
2022/11/02 03:28:44;;;;;;;7.68;1.30;;;;;;;;;;4992869;28;20252;-64
2022/11/02 03:31:16;;;;;;;9.52;1.40;;;;;;;;;;4992025;28;20219;-64
2022/11/02 03:33:46;;;;;;;5.50;1.20;;;;;;;;;;5005831;28;20241;-64
2022/11/02 03:36:12;;;;;;;7.28;1.33;;;;;;;;;;4981692;28;20711;-64
2022/11/02 03:38:44;;;;;;;7.75;1.25;;;;;;;;;;4994457;28;20217;-64
2022/11/02 03:41:10;;;;;;;8.10;1.15;;;;;;;;;;4980406;28;20209;-64
2022/11/02 03:43:35;;;;;;;10.25;1.58;;;;;;;;;;4984362;28;20266;-64
2022/11/02 03:46:01;;;;;;;9.20;1.55;;;;;;;;;;4970954;28;20229;-64
2022/11/02 03:48:28;;;;;;;9.55;1.48;;;;;;;;;;4973896;28;20216;-64
2022/11/02 03:50:53;;;;;;;8.32;2.15;;;;;;;;;;4975177;28;20260;-64
2022/11/02 03:53:19;;;;;;;7.13;1.85;;;;;;;;;;4974121;28;20229;-64
2022/11/02 03:55:46;;;;;;;9.18;1.63;;;;;;;;;;4974386;28;20220;-64
2022/11/02 03:58:12;;;;;;;7.75;1.55;;;;;;;;;;4974059;28;20344;-64
2022/11/02 04:00:38;;;;;;;7.55;1.55;;;;;;;;;;4975173;28;20336;-64
2022/11/02 04:03:05;;;;;;;9.88;1.73;;;;;;;;;;4967482;28;20317;-64
2022/11/02 04:05:32;;;;;;;9.15;1.50;;;;;;;;;;4968499;28;20235;-64
2022/11/02 04:14:36;;;;;;;9.23;1.75;;;;;;;;;;4972969;28;20224;-64
2022/11/02 04:16:11;;;;;;;12.75;1.80;;;;;;;;;;4973670;28;20208;-64
2022/11/02 04:21:20;;;;;;;10.05;2.15;;;;;;;;;;4974891;28;20223;-64
2022/11/02 04:26:29;;;;;;;13.07;2.85;;;;;;;;;;4969924;28;20216;-64
2022/11/02 04:28:55;;;;;;;12.20;1.80;;;;;;;;;;4969271;28;20209;-64
2022/11/02 04:31:20;;;;;;;11.30;1.75;;;;;;;;;;4970030;28;20786;-64
2022/11/02 04:33:45;;;;;;;12.85;2.03;;;;;;;;;;4975689;28;20606;-64
2022/11/02 04:36:10;;;;;;;11.63;2.67;;;;;;;;;;4975022;28;20209;-64
2022/11/02 04:38:42;;;;;;;12.02;1.98;;;;;;;;;;4974672;28;20209;-64
2022/11/02 04:41:40;;;;;;;12.07;1.70;;;;;;;;;;4975126;28;20213;-64
2022/11/02 04:44:05;;;;;;;13.80;2.25;;;;;;;;;;4974733;28;20621;-64
2022/11/02 04:46:32;;;;;;;13.63;1.55;;;;;;;;;;4974502;28;20213;-64
2022/11/02 04:48:57;;;;;;;14.43;1.92;;;;;;;;;;4970139;28;20213;-64
2022/11/02 04:51:23;;;;;;;12.13;1.80;;;;;;;;;;4969872;28;20233;-64
2022/11/02 04:53:48;;;;;;;12.40;2.10;;;;;;;;;;4971035;28;20217;-64
2022/11/02 04:56:14;;;;;;;12.98;1.85;;;;;;;;;;4990475;28;20236;-64
2022/11/02 04:58:39;;;;;;;13.55;2.22;;;;;;;;;;4975850;28;20212;-64
2022/11/02 05:01:06;;;;;;;13.65;1.70;;;;;;;;;;4975702;28;20205;-64
2022/11/02 05:03:31;;;;;;;12.88;2.35;;;;;;;;;;4974680;28;20300;-64
2022/11/02 05:05:56;;;;;;;9.30;1.48;;;;;;;;;;4975340;28;20209;-64
2022/11/02 05:08:22;;;;;;;11.73;1.80;;;;;;;;;;4975339;28;20823;-64
2022/11/02 05:10:47;;;;;;;13.63;2.05;;;;;;;;;;4970669;28;20296;-64
2022/11/02 05:13:12;;;;;;;10.80;1.80;;;;;;;;;;4967667;28;20615;-64
2022/11/02 05:15:38;;;;;;;14.98;2.00;;;;;;;;;;4969737;28;20225;-64
2022/11/02 05:18:03;;;;;;;10.48;1.58;;;;;;;;;;4975490;28;20250;-64
2022/11/02 05:20:28;;;;;;;13.15;2.33;;;;;;;;;;4975827;28;20231;-64
2022/11/02 05:22:54;;;;;;;12.15;1.55;;;;;;;;;;4976865;28;20213;-64
2022/11/02 05:25:19;;;;;;;9.38;1.80;;;;;;;;;;4975732;28;20752;-64
2022/11/02 05:27:44;;;;;;;10.75;2.35;;;;;;;;;;4975781;28;20275;-64
2022/11/02 05:30:10;;;;;;;12.80;2.30;;;;;;;;;;4979031;28;20206;-64
2022/11/02 05:32:35;;;;;;;21.85;2.20;;;;;;;;;;4976245;28;20217;-64
2022/11/02 05:35:00;;;;;;;14.55;2.00;;;;;;;;;;4972170;28;20209;-64
2022/11/02 05:37:25;;;;;;;13.48;2.05;;;;;;;;;;4972979;28;20795;-64
2022/11/02 05:39:51;;;;;;;12.88;2.20;;;;;;;;;;4975870;28;20754;-63
2022/11/02 05:42:16;;;;;;;13.68;2.28;;;;;;;;;;4981217;28;20239;-64
2022/11/02 05:44:41;;;;;;;12.57;2.15;;;;;;;;;;4985537;28;20229;-64
2022/11/02 05:47:07;;;;;;;13.05;2.25;;;;;;;;;;4984987;28;20328;-63
2022/11/02 05:49:32;;;;;;;16.45;1.90;;;;;;;;;;4984904;28;20217;-64
2022/11/02 05:51:57;;;;;;;11.45;1.90;;;;;;;;;;4985453;28;20221;-64
2022/11/02 05:54:23;;;;;;;14.05;2.38;;;;;;;;;;4982616;28;20237;-64
2022/11/02 05:56:48;;;;;;;14.02;2.08;;;;;;;;;;4970426;28;20255;-64
2022/11/02 05:59:13;;;;;;;9.98;2.00;;;;;;;;;;4973009;28;20219;-64
2022/11/02 06:01:39;;;;;;;15.93;1.90;;;;;;;;;;4973497;28;20209;-63
2022/11/02 06:04:04;;;;;;;13.25;2.45;;;;;;;;;;4979308;28;20279;-64
2022/11/02 06:06:30;;;;;;;13.05;2.33;;;;;;;;;;4980063;28;20301;-63
2022/11/02 06:08:55;;;;;;;13.10;2.08;;;;;;;;;;4994027;28;20615;-63
2022/11/02 06:11:20;;;;;;;15.18;2.72;;;;;;;;;;4978838;28;20883;-63
2022/11/02 06:13:48;;;;;;;9.45;1.90;;;;;;;;;;4979917;28;20264;-63
2022/11/02 06:16:14;;;;;;;8.43;1.90;;;;;;;;;;4993977;28;20559;-63
2022/11/02 06:18:40;;;;;;;12.65;2.47;;;;;;;;;;4989047;28;20220;-63
2022/11/02 06:21:05;;;;;;;11.27;2.13;;;;;;;;;;4972248;28;20217;-63
2022/11/02 06:23:30;;;;;;;13.25;2.28;;;;;;;;;;4972075;28;20292;-63
2022/11/02 06:25:56;;;;;;;10.15;1.90;;;;;;;;;;4992894;28;20200;-63
2022/11/02 06:28:21;;;;;;;15.43;2.63;;;;;;;;;;4977702;28;20228;-63
2022/11/02 06:30:46;;;;;;;12.70;1.92;;;;;;;;;;4978783;28;20217;-63
2022/11/02 06:33:12;;;;;;;11.82;2.28;;;;;;;;;;4978802;28;20213;-63
2022/11/02 06:35:37;;;;;;;11.32;1.73;;;;;;;;;;4979308;28;20216;-63
2022/11/02 06:38:02;;;;;;;16.95;2.08;;;;;;;;;;4978414;28;20631;-63
2022/11/02 06:40:28;;;;;;;11.40;1.73;;;;;;;;;;4975008;28;20224;-63
2022/11/02 06:42:55;;;;;;;10.68;1.73;;;;;;;;;;4971849;28;20329;-63
2022/11/02 06:45:20;;;;;;;12.13;2.30;;;;;;;;;;4971126;28;20217;-63
2022/11/02 06:47:45;;;;;;;11.38;1.65;;;;;;;;;;4975241;28;20232;-63
2022/11/02 06:50:11;;;;;;;12.98;1.85;;;;;;;;;;4992800;28;20279;-63
2022/11/02 06:52:41;;;;;;;15.38;2.22;;;;;;;;;;4977587;28;20214;-63
2022/11/02 06:55:06;;;;;;;12.02;1.95;;;;;;;;;;4977776;28;20227;-63
2022/11/02 06:57:34;;;;;;;11.38;2.25;;;;;;;;;;4977782;28;20225;-63
2022/11/02 07:00:03;;;;;;;15.20;2.63;;;;;;;;;;4978234;28;20304;-63
2022/11/02 07:02:28;;;;;;;13.30;1.83;;;;;;;;;;4975326;28;20224;-63
2022/11/02 07:04:54;;;;;;;11.68;1.63;;;;;;;;;;4969161;28;20225;-63
2022/11/02 07:07:19;;;;;;;12.13;2.00;;;;;;;;;;4969256;28;22992;-63
2022/11/02 07:09:44;;;;;;;15.15;1.90;;;;;;;;;;4983684;28;20212;-61
2022/11/02 07:12:10;;;;;;;8.77;2.00;;;;;;;;;;4986702;28;20213;-64
2022/11/02 07:14:35;;;;;;;13.10;2.60;;;;;;;;;;4987881;28;20419;-62
2022/11/02 07:17:00;;;;;;;11.80;1.93;;;;;;;;;;4988297;28;20433;-62
2022/11/02 07:19:25;;;;;;;13.23;2.80;;;;;;;;;;4985943;28;20749;-62
2022/11/02 07:21:51;;;;;;;11.80;2.72;;;;;;;;;;4987923;28;20213;-62
2022/11/02 07:24:16;;;;;;;13.50;2.10;;;;;;;;;;4987054;28;20229;-62
2022/11/02 07:26:41;;;;;;;10.80;2.10;;;;;;;;;;4986843;28;20201;-62
2022/11/02 07:29:06;;;;;;;13.85;1.80;;;;;;;;;;4987131;28;20205;-62
2022/11/02 07:31:32;;;;;;;12.27;2.13;;;;;;;;;;4987801;28;20205;-63
2022/11/02 07:33:57;;;;;;;11.05;2.10;;;;;;;;;;4986934;28;20571;-62
2022/11/02 07:36:22;;;;;;;16.75;2.20;;;;;;;;;;4986642;28;20253;-62
2022/11/02 07:38:48;;;;;;;10.38;1.80;;;;;;;;;;4984609;28;20683;-62
2022/11/02 07:41:13;;;;;;;12.75;2.30;;;;;;;;;;4986669;28;20233;-62
2022/11/02 07:43:39;;;;;;;14.70;2.25;;;;;;;;;;4987879;28;20209;-62
2022/11/02 07:46:05;;;;;;;11.68;1.95;;;;;;;;;;4987329;28;20645;-63
2022/11/02 07:48:30;;;;;;;11.60;1.77;;;;;;;;;;5001722;28;20215;-63
2022/11/02 07:50:56;;;;;;;19.55;2.25;;;;;;;;;;5001895;28;20197;-63
2022/11/02 07:53:22;;;;;;;10.43;1.85;;;;;;;;;;4986910;28;20201;-63
2022/11/02 07:55:47;;;;;;;9.65;1.70;;;;;;;;;;4986018;28;20220;-64
2022/11/02 07:58:12;;;;;;;14.75;2.10;;;;;;;;;;4990712;28;20279;-62
2022/11/02 08:00:38;;;;;;;13.23;2.63;;;;;;;;;;4991521;28;20851;-64
2022/11/02 08:03:04;;;;;;;9.02;1.98;;;;;;;;;;5006417;28;20244;-64
2022/11/02 08:05:29;;;;;;;20.00;2.30;;;;;;;;;;4992422;28;20292;-64
2022/11/02 08:07:55;;;;;;;11.15;1.80;;;;;;;;;;4991609;28;20205;-66
2022/11/02 08:10:21;;;;;;;13.60;1.85;;;;;;;;;;4982912;28;20308;-65
2022/11/02 08:12:46;;;;;;;12.15;1.90;;;;;;;;;;4987996;28;20368;-65
2022/11/02 08:15:11;;;;;;;12.85;2.40;;;;;;;;;;5002038;28;20209;-65
2022/11/02 08:17:36;;;;;;;11.93;2.50;;;;;;;;;;4988574;28;20205;-65
2022/11/02 08:20:02;;;;;;;14.80;1.98;;;;;;;;;;4988146;28;20228;-64
2022/11/02 08:22:27;;;;;;;10.13;1.92;;;;;;;;;;4985788;28;20841;-65
2022/11/02 08:24:52;;;;;;;11.05;1.70;;;;;;;;;;4969053;28;20288;-65
2022/11/02 08:27:18;;;;;;;9.32;1.73;;;;;;;;;;4982887;28;20213;-64
2022/11/02 08:29:43;;;;;;;10.15;1.67;;;;;;;;;;4985482;28;20227;-65
2022/11/02 08:32:08;;;;;;;15.30;3.80;;;;;;;;;;4987072;28;20571;-65
2022/11/02 08:34:34;;;;;;;14.65;3.40;;;;;;;;;;4986908;28;20212;-65
2022/11/02 08:36:59;;;;;;;15.75;3.65;;;;;;;;;;4984020;28;20232;-65
2022/11/02 08:39:24;;;;;;;11.77;2.10;;;;;;;;;;4985668;28;20213;-65
2022/11/02 08:41:51;;;;;;;10.40;2.13;;;;;;;;;;4983710;28;20217;-65
2022/11/02 08:44:16;;;;;;;12.77;2.10;;;;;;;;;;4984853;28;20598;-65
2022/11/02 08:46:41;;;;;;;14.75;2.90;;;;;;;;;;4987257;28;20209;-65
2022/11/02 08:49:06;;;;;;;12.00;1.98;;;;;;;;;;4986671;28;20231;-65
2022/11/02 08:51:32;;;;;;;9.95;1.50;;;;;;;;;;4986049;28;20212;-65
2022/11/02 08:53:57;;;;;;;10.63;1.70;;;;;;;;;;4987265;28;20754;-65
2022/11/02 08:56:22;;;;;;;11.55;1.80;;;;;;;;;;4986592;28;20241;-65
2022/11/02 08:58:48;;;;;;;10.10;1.83;;;;;;;;;;4985953;28;20213;-65
2022/11/02 09:01:13;;;;;;;10.52;2.22;;;;;;;;;;4986991;28;20220;-65
2022/11/02 09:03:38;;;;;;;12.55;2.15;;;;;;;;;;4990003;28;20634;-65
2022/11/02 09:06:03;;;;;;;13.05;2.13;;;;;;;;;;4987470;28;20749;-64
2022/11/02 09:08:29;;;;;;;11.38;1.90;;;;;;;;;;4991041;28;20526;-65
2022/11/02 09:10:56;;;;;;;11.30;1.92;;;;;;;;;;4990709;28;20824;-65
2022/11/02 09:13:24;;;;;;;12.52;2.08;;;;;;;;;;4989327;28;20213;-65
2022/11/02 09:15:50;;;;;;;7.97;1.60;;;;;;;;;;4990565;28;20217;-65
2022/11/02 09:18:15;;;;;;;7.70;1.95;;;;;;;;;;4989352;28;20240;-65
2022/11/02 09:20:40;;;;;;;12.50;2.45;;;;;;;;;;4988885;28;20213;-65
2022/11/02 09:23:06;;;;;;;13.65;2.08;;;;;;;;;;4984569;28;20221;-66
2022/11/02 09:25:31;;;;;;;11.93;1.90;;;;;;;;;;4985549;28;20209;-65
2022/11/02 09:27:56;;;;;;;10.15;2.13;;;;;;;;;;4987602;28;20209;-65
2022/11/02 09:30:22;;;;;;;12.13;2.50;;;;;;;;;;4990356;28;20715;-65
2022/11/02 09:32:54;;;;;;;11.27;2.00;;;;;;;;;;4989823;28;20217;-65
2022/11/02 09:35:19;;;;;;;11.68;1.90;;;;;;;;;;5005051;28;20209;-63
2022/11/02 09:37:45;;;;;;;11.80;1.90;;;;;;;;;;4989911;28;20460;-65
2022/11/02 09:40:10;;;;;;;8.57;1.80;;;;;;;;;;4988861;28;20205;-65
2022/11/02 09:42:40;;;;;;;10.57;2.05;;;;;;;;;;5004429;28;20217;-65
2022/11/02 09:45:07;;;;;;;10.35;1.60;;;;;;;;;;4989458;28;20252;-65
2022/11/02 09:47:35;;;;;;;13.75;2.45;;;;;;;;;;4987605;28;20405;-64
2022/11/02 09:50:00;;;;;;;12.43;2.22;;;;;;;;;;5004313;28;20208;-64
2022/11/02 09:52:29;;;;;;;17.10;1.95;;;;;;;;;;4989413;28;20552;-64
2022/11/02 09:54:54;;;;;;;13.43;1.90;;;;;;;;;;4989105;28;20212;-64
2022/11/02 09:57:20;;;;;;;10.60;1.75;;;;;;;;;;4988904;28;21820;-64
2022/11/02 09:59:46;;;;;;;9.18;1.63;;;;;;;;;;5004823;28;20213;-64
2022/11/02 10:02:20;;;;;;;10.88;2.00;;;;;;;;;;4988544;28;20232;-64
2022/11/02 10:04:45;;;;;;;11.60;1.73;;;;;;;;;;5005182;28;20213;-64
2022/11/02 10:07:20;;;;;;;10.32;2.00;;;;;;;;;;4989329;28;20213;-64
2022/11/02 10:09:46;;;;;;;11.38;1.88;;;;;;;;;;5004230;28;20213;-64
2022/11/02 10:12:13;;;;;;;9.98;1.85;;;;;;;;;;4989162;28;20531;-65
2022/11/02 10:14:41;;;;;;;11.15;1.90;;;;;;;;;;5002811;28;20233;-64
2022/11/02 10:17:13;;;;;;;10.57;1.70;;;;;;;;;;5003580;28;20212;-64
2022/11/02 10:19:39;;;;;;;9.18;2.28;;;;;;;;;;5004611;28;20205;-64
2022/11/02 10:22:04;;;;;;;13.00;2.10;;;;;;;;;;4988392;28;20267;-64
2022/11/02 10:24:32;;;;;;;10.07;2.10;;;;;;;;;;5004441;28;20232;-64
2022/11/02 10:26:58;;;;;;;10.98;2.15;;;;;;;;;;4989088;28;20201;-64
2022/11/02 10:29:30;;;;;;;11.35;1.92;;;;;;;;;;5003302;28;20221;-64
2022/11/02 10:31:56;;;;;;;13.23;2.30;;;;;;;;;;4989144;28;20228;-64
2022/11/02 10:34:27;;;;;;;11.57;1.88;;;;;;;;;;5004033;28;20842;-64
2022/11/02 10:36:56;;;;;;;8.13;1.63;;;;;;;;;;5002815;28;20578;-63
2022/11/02 10:39:24;;;;;;;11.48;2.08;;;;;;;;;;4987739;28;20300;-65
2022/11/02 10:41:51;;;;;;;8.65;1.67;;;;;;;;;;4988556;28;20239;-65
2022/11/02 10:44:21;;;;;;;9.77;1.55;;;;;;;;;;4987267;28;20229;-65
2022/11/02 10:46:47;;;;;;;13.05;1.90;;;;;;;;;;5003929;28;20212;-65
2022/11/02 10:49:17;;;;;;;12.90;2.05;;;;;;;;;;4988152;28;20213;-65
2022/11/02 10:51:42;;;;;;;11.48;1.80;;;;;;;;;;4988501;28;20207;-65
2022/11/02 10:54:10;;;;;;;11.00;2.60;;;;;;;;;;5003180;28;20217;-65
2022/11/02 10:56:35;;;;;;;12.63;1.98;;;;;;;;;;5003254;28;20583;-65
2022/11/02 10:59:02;;;;;;;12.30;2.17;;;;;;;;;;5002836;28;20205;-65
2022/11/02 11:01:27;;;;;;;12.30;1.90;;;;;;;;;;5003637;28;20222;-65
2022/11/02 11:03:54;;;;;;;10.73;1.83;;;;;;;;;;4988093;28;20796;-65
2022/11/02 11:06:19;;;;;;;8.80;2.25;;;;;;;;;;4988069;28;20723;-65
2022/11/02 11:08:45;;;;;;;12.07;2.10;;;;;;;;;;4988170;28;20221;-65
2022/11/02 11:11:13;;;;;;;11.45;2.30;;;;;;;;;;4987382;28;21008;-65
2022/11/02 11:13:38;;;;;;;9.43;1.63;;;;;;;;;;4988790;28;20275;-65
2022/11/02 11:16:05;;;;;;;14.20;1.67;;;;;;;;;;4987979;28;20243;-64
2022/11/02 11:18:30;;;;;;;12.32;1.90;;;;;;;;;;5002901;28;20240;-65
2022/11/02 11:20:55;;;;;;;13.05;2.28;;;;;;;;;;4988160;28;20225;-65
2022/11/02 11:23:21;;;;;;;14.05;1.90;;;;;;;;;;4987867;28;20221;-65
2022/11/02 11:25:55;;;;;;;13.50;2.15;;;;;;;;;;5002160;28;20840;-65
2022/11/02 11:28:20;;;;;;;13.80;2.15;;;;;;;;;;5003022;28;20229;-65
2022/11/02 11:30:45;;;;;;;9.10;2.25;;;;;;;;;;4988208;28;20240;-65
2022/11/02 11:33:14;;;;;;;11.70;2.10;;;;;;;;;;4986931;28;20201;-65
2022/11/02 11:35:39;;;;;;;16.33;2.25;;;;;;;;;;5003282;28;20220;-65
2022/11/02 11:38:07;;;;;;;12.48;2.03;;;;;;;;;;5002863;28;20251;-65
2022/11/02 11:40:34;;;;;;;12.45;2.38;;;;;;;;;;4987262;28;20217;-65
2022/11/02 11:42:59;;;;;;;10.80;1.90;;;;;;;;;;5002866;28;20205;-65
2022/11/02 11:45:25;;;;;;;12.30;1.75;;;;;;;;;;5002819;28;20213;-65
2022/11/02 11:47:51;;;;;;;11.55;1.80;;;;;;;;;;4987741;28;20209;-65
2022/11/02 11:50:16;;;;;;;13.90;2.60;;;;;;;;;;4987505;28;20268;-65
2022/11/02 11:52:42;;;;;;;13.48;2.38;;;;;;;;;;4987675;28;20212;-65
2022/11/02 11:55:23;;;;;;;10.73;2.30;;;;;;;;;;4985494;28;20593;-65
2022/11/02 11:58:14;;;;;;;11.60;2.22;;;;;;;;;;4986151;28;20224;-64
2022/11/02 12:00:40;;;;;;;9.93;1.70;;;;;;;;;;4986812;28;20221;-65
2022/11/02 12:03:06;;;;;;;11.02;2.15;;;;;;;;;;4987182;28;20213;-65
2022/11/02 12:05:33;;;;;;;11.15;2.10;;;;;;;;;;4987526;28;20564;-65
2022/11/02 12:08:04;;;;;;;11.60;1.88;;;;;;;;;;4986085;28;20209;-65
2022/11/02 12:10:49;;;;;;;10.95;1.90;;;;;;;;;;4987565;28;20205;-65
2022/11/02 12:13:26;;;;;;;12.95;1.98;;;;;;;;;;5001664;28;20288;-65
2022/11/02 12:15:58;;;;;;;11.75;2.10;;;;;;;;;;4985487;28;20810;-65
2022/11/02 12:18:38;;;;;;;8.63;1.77;;;;;;;;;;4987002;28;20213;-65
2022/11/02 12:21:21;;;;;;;10.90;1.92;;;;;;;;;;5001770;28;20212;-65
2022/11/02 12:23:50;;;;;;;9.13;2.25;;;;;;;;;;4987949;28;20229;-65
2022/11/02 12:26:34;;;;;;;10.68;1.90;;;;;;;;;;5001600;28;20716;-65
2022/11/02 12:29:04;;;;;;;11.55;1.83;;;;;;;;;;4986579;28;20248;-64
2022/11/02 12:31:36;;;;;;;11.65;2.08;;;;;;;;;;4986133;28;20208;-64
2022/11/02 12:34:06;;;;;;;13.68;1.67;;;;;;;;;;4987669;28;20209;-63
2022/11/02 12:36:35;;;;;;;13.20;1.73;;;;;;;;;;5001685;28;20299;-64
2022/11/02 12:39:06;;;;;;;10.95;1.95;;;;;;;;;;4990361;28;20224;-64
2022/11/02 12:41:35;;;;;;;12.73;2.05;;;;;;;;;;5005616;28;20296;-63
2022/11/02 12:44:05;;;;;;;10.23;1.70;;;;;;;;;;4990393;28;20715;-63
2022/11/02 12:46:33;;;;;;;8.90;1.85;;;;;;;;;;5006386;28;20252;-65
2022/11/02 12:49:05;;;;;;;9.00;1.67;;;;;;;;;;4973793;28;20856;-64
2022/11/02 12:51:37;;;;;;;8.23;1.85;;;;;;;;;;4989105;28;20247;-65
2022/11/02 12:54:05;;;;;;;12.32;1.65;;;;;;;;;;4989531;28;20271;-64
2022/11/02 12:56:35;;;;;;;10.68;1.98;;;;;;;;;;4988607;28;20220;-64
2022/11/02 12:59:01;;;;;;;10.65;1.70;;;;;;;;;;4989832;28;20213;-64
2022/11/02 13:01:30;;;;;;;8.98;2.10;;;;;;;;;;5000126;28;20327;-64
2022/11/02 13:04:02;;;;;;;10.63;1.60;;;;;;;;;;5004937;28;20252;-64
2022/11/02 13:06:30;;;;;;;10.50;2.13;;;;;;;;;;5006166;28;20601;-64
2022/11/02 13:08:57;;;;;;;9.82;1.70;;;;;;;;;;5005991;28;20284;-64
2022/11/02 13:11:30;;;;;;;11.40;1.77;;;;;;;;;;4989130;28;20212;-64
2022/11/02 13:13:56;;;;;;;8.38;1.73;;;;;;;;;;5005588;28;20205;-64
2022/11/02 13:16:24;;;;;;;12.00;2.47;;;;;;;;;;5015811;28;20292;-64
2022/11/02 13:18:52;;;;;;;10.65;1.45;;;;;;;;;;5024458;28;20208;-64
2022/11/02 13:21:18;;;;;;;10.95;1.95;;;;;;;;;;5001174;28;20213;-64
2022/11/02 13:23:45;;;;;;;10.95;1.67;;;;;;;;;;5005354;28;20282;-64
2022/11/02 13:26:23;;;;;;;9.35;1.73;;;;;;;;;;5004554;28;20349;-64
2022/11/02 13:28:52;;;;;;;15.45;2.10;;;;;;;;;;5005560;28;20738;-64
2022/11/02 13:31:22;;;;;;;11.05;2.15;;;;;;;;;;5005065;28;20217;-64
2022/11/02 13:33:47;;;;;;;11.15;1.88;;;;;;;;;;4989706;28;20213;-64
2022/11/02 13:36:12;;;;;;;9.68;1.52;;;;;;;;;;5004696;28;20209;-64
2022/11/02 13:38:40;;;;;;;10.30;2.10;;;;;;;;;;5004437;28;20213;-64
2022/11/02 13:41:10;;;;;;;9.05;1.60;;;;;;;;;;4989545;28;20217;-64
2022/11/02 13:43:42;;;;;;;9.23;1.77;;;;;;;;;;4989921;28;20217;-64
2022/11/02 13:46:17;;;;;;;6.50;1.70;;;;;;;;;;4988694;28;20217;-64
2022/11/02 13:48:50;;;;;;;6.95;1.38;;;;;;;;;;4970017;28;20201;-64
2022/11/02 13:51:20;;;;;;;8.07;1.63;;;;;;;;;;4985072;28;20244;-64
2022/11/02 13:53:50;;;;;;;7.40;1.50;;;;;;;;;;4984721;28;20474;-64
2022/11/02 13:56:20;;;;;;;7.43;1.80;;;;;;;;;;4984583;28;20217;-64
2022/11/02 13:58:46;;;;;;;13.23;1.90;;;;;;;;;;4984624;28;20229;-64
2022/11/02 14:01:14;;;;;;;8.20;1.50;;;;;;;;;;5003027;28;20213;-64
2022/11/02 14:03:47;;;;;;;12.02;1.73;;;;;;;;;;5009134;28;20248;-64
2022/11/02 14:06:13;;;;;;;11.48;1.80;;;;;;;;;;5008438;28;20648;-64
2022/11/02 14:08:40;;;;;;;11.95;2.20;;;;;;;;;;5008719;28;20209;-64
2022/11/02 14:11:22;;;;;;;10.32;1.80;;;;;;;;;;4992449;28;20208;-64
2022/11/02 14:13:50;;;;;;;12.68;1.90;;;;;;;;;;4987201;28;20761;-64
2022/11/02 14:16:34;;;;;;;11.73;1.90;;;;;;;;;;4989029;28;20235;-65
2022/11/02 14:19:13;;;;;;;8.35;1.35;;;;;;;;;;4991321;28;20201;-64
2022/11/02 14:21:38;;;;;;;10.68;1.85;;;;;;;;;;5002446;28;20224;-67
2022/11/02 14:24:23;;;;;;;10.98;1.85;;;;;;;;;;4994288;28;20346;-64
2022/11/02 14:26:53;;;;;;;8.70;2.00;;;;;;;;;;5009103;28;20676;-65
2022/11/02 14:29:34;;;;;;;11.88;2.35;;;;;;;;;;4993202;28;20390;-64
2022/11/02 14:32:00;;;;;;;13.35;1.95;;;;;;;;;;4975228;28;20214;-65
2022/11/02 14:34:29;;;;;;;14.70;2.35;;;;;;;;;;4980563;28;20271;-64
2022/11/02 14:37:07;;;;;;;12.65;2.20;;;;;;;;;;4988475;28;20209;-64
2022/11/02 14:39:52;;;;;;;13.07;2.03;;;;;;;;;;4988179;28;20209;-64
2022/11/02 14:42:21;;;;;;;12.73;3.00;;;;;;;;;;4988545;28;20220;-64
2022/11/02 14:44:50;;;;;;;8.80;1.73;;;;;;;;;;5004235;28;20232;-64